sensor_id;sensor_type;location;lat;lon;timestamp;P1;durP1;ratioP1;P2;durP2;ratioP2
37141;SDS011;23041;49.816;20.092;2022-09-12T00:00:33;10.08;;;8.80;;
37141;SDS011;23041;49.816;20.092;2022-09-12T00:03:01;9.45;;;8.55;;
37141;SDS011;23041;49.816;20.092;2022-09-12T00:05:27;10.75;;;9.65;;
37141;SDS011;23041;49.816;20.092;2022-09-12T00:07:55;10.18;;;9.18;;
37141;SDS011;23041;49.816;20.092;2022-09-12T00:10:21;10.90;;;8.98;;
37141;SDS011;23041;49.816;20.092;2022-09-12T00:12:47;11.48;;;10.32;;
37141;SDS011;23041;49.816;20.092;2022-09-12T00:15:13;11.63;;;10.43;;
37141;SDS011;23041;49.816;20.092;2022-09-12T00:17:40;13.50;;;11.30;;
37141;SDS011;23041;49.816;20.092;2022-09-12T00:20:07;12.47;;;11.10;;
37141;SDS011;23041;49.816;20.092;2022-09-12T00:22:34;11.55;;;10.35;;
37141;SDS011;23041;49.816;20.092;2022-09-12T00:25:02;11.38;;;10.08;;
37141;SDS011;23041;49.816;20.092;2022-09-12T00:27:30;14.47;;;12.98;;
37141;SDS011;23041;49.816;20.092;2022-09-12T00:29:56;16.32;;;13.00;;
37141;SDS011;23041;49.816;20.092;2022-09-12T00:32:22;14.85;;;12.90;;
37141;SDS011;23041;49.816;20.092;2022-09-12T00:34:48;15.95;;;13.15;;
37141;SDS011;23041;49.816;20.092;2022-09-12T00:37:14;13.00;;;11.70;;
37141;SDS011;23041;49.816;20.092;2022-09-12T00:39:40;12.28;;;11.05;;
37141;SDS011;23041;49.816;20.092;2022-09-12T00:42:08;15.25;;;13.00;;
37141;SDS011;23041;49.816;20.092;2022-09-12T00:47:13;15.15;;;13.53;;
37141;SDS011;23041;49.816;20.092;2022-09-12T00:52:39;14.38;;;12.95;;
37141;SDS011;23041;49.816;20.092;2022-09-12T00:55:16;15.08;;;12.95;;
37141;SDS011;23041;49.816;20.092;2022-09-12T00:58:01;14.63;;;13.13;;
37141;SDS011;23041;49.816;20.092;2022-09-12T01:00:37;16.55;;;14.00;;
37141;SDS011;23041;49.816;20.092;2022-09-12T01:03:07;19.67;;;14.03;;
37141;SDS011;23041;49.816;20.092;2022-09-12T01:05:38;19.15;;;15.70;;
37141;SDS011;23041;49.816;20.092;2022-09-12T01:08:09;20.88;;;13.72;;
37141;SDS011;23041;49.816;20.092;2022-09-12T01:10:36;15.40;;;13.80;;
37141;SDS011;23041;49.816;20.092;2022-09-12T01:13:05;15.55;;;13.98;;
37141;SDS011;23041;49.816;20.092;2022-09-12T01:15:35;15.87;;;14.20;;
37141;SDS011;23041;49.816;20.092;2022-09-12T01:32:37;16.37;;;14.60;;
37141;SDS011;23041;49.816;20.092;2022-09-12T01:44:12;16.85;;;14.90;;
37141;SDS011;23041;49.816;20.092;2022-09-12T01:49:45;15.43;;;13.78;;
37141;SDS011;23041;49.816;20.092;2022-09-12T01:52:17;14.95;;;12.65;;
37141;SDS011;23041;49.816;20.092;2022-09-12T01:55:01;15.83;;;14.25;;
37141;SDS011;23041;49.816;20.092;2022-09-12T01:57:46;16.82;;;15.03;;
37141;SDS011;23041;49.816;20.092;2022-09-12T02:00:33;15.55;;;13.95;;
37141;SDS011;23041;49.816;20.092;2022-09-12T02:03:23;14.65;;;13.28;;
37141;SDS011;23041;49.816;20.092;2022-09-12T02:05:58;16.37;;;14.68;;
37141;SDS011;23041;49.816;20.092;2022-09-12T02:08:52;17.40;;;15.40;;
37141;SDS011;23041;49.816;20.092;2022-09-12T02:11:24;17.10;;;15.30;;
37141;SDS011;23041;49.816;20.092;2022-09-12T02:13:55;20.15;;;15.15;;
37141;SDS011;23041;49.816;20.092;2022-09-12T02:16:33;15.23;;;13.72;;
37141;SDS011;23041;49.816;20.092;2022-09-12T02:19:08;16.27;;;13.55;;
37141;SDS011;23041;49.816;20.092;2022-09-12T02:21:38;15.15;;;13.65;;
37141;SDS011;23041;49.816;20.092;2022-09-12T02:24:08;16.57;;;14.68;;
37141;SDS011;23041;49.816;20.092;2022-09-12T02:26:40;18.20;;;14.65;;
37141;SDS011;23041;49.816;20.092;2022-09-12T02:29:09;18.70;;;15.05;;
37141;SDS011;23041;49.816;20.092;2022-09-12T02:31:45;16.27;;;12.93;;
37141;SDS011;23041;49.816;20.092;2022-09-12T02:34:18;15.40;;;13.22;;
37141;SDS011;23041;49.816;20.092;2022-09-12T02:37:22;15.88;;;14.05;;
37141;SDS011;23041;49.816;20.092;2022-09-12T02:39:52;16.82;;;15.03;;
37141;SDS011;23041;49.816;20.092;2022-09-12T02:42:20;18.87;;;14.95;;
37141;SDS011;23041;49.816;20.092;2022-09-12T02:44:47;16.05;;;14.47;;
37141;SDS011;23041;49.816;20.092;2022-09-12T02:47:21;17.25;;;13.65;;
37141;SDS011;23041;49.816;20.092;2022-09-12T02:49:46;16.57;;;14.05;;
37141;SDS011;23041;49.816;20.092;2022-09-12T02:52:13;16.30;;;13.78;;
37141;SDS011;23041;49.816;20.092;2022-09-12T02:54:40;17.90;;;16.00;;
37141;SDS011;23041;49.816;20.092;2022-09-12T02:57:17;20.00;;;16.20;;
37141;SDS011;23041;49.816;20.092;2022-09-12T02:59:46;18.07;;;16.17;;
37141;SDS011;23041;49.816;20.092;2022-09-12T03:02:19;17.70;;;14.55;;
37141;SDS011;23041;49.816;20.092;2022-09-12T03:11:22;17.45;;;15.55;;
37141;SDS011;23041;49.816;20.092;2022-09-12T03:13:53;17.92;;;16.23;;
37141;SDS011;23041;49.816;20.092;2022-09-12T03:16:56;18.73;;;15.75;;
37141;SDS011;23041;49.816;20.092;2022-09-12T03:30:39;16.97;;;15.28;;
37141;SDS011;23041;49.816;20.092;2022-09-12T03:33:16;18.20;;;16.07;;
37141;SDS011;23041;49.816;20.092;2022-09-12T03:35:46;15.10;;;13.60;;
37141;SDS011;23041;49.816;20.092;2022-09-12T03:38:14;16.48;;;14.07;;
37141;SDS011;23041;49.816;20.092;2022-09-12T03:40:40;16.77;;;15.03;;
37141;SDS011;23041;49.816;20.092;2022-09-12T03:43:08;17.23;;;15.55;;
37141;SDS011;23041;49.816;20.092;2022-09-12T03:45:35;18.52;;;15.65;;
37141;SDS011;23041;49.816;20.092;2022-09-12T03:48:02;18.37;;;14.03;;
37141;SDS011;23041;49.816;20.092;2022-09-12T03:50:31;15.95;;;14.30;;
37141;SDS011;23041;49.816;20.092;2022-09-12T03:52:58;15.53;;;14.13;;
37141;SDS011;23041;49.816;20.092;2022-09-12T03:55:24;16.52;;;14.70;;
37141;SDS011;23041;49.816;20.092;2022-09-12T03:57:52;16.95;;;15.20;;
37141;SDS011;23041;49.816;20.092;2022-09-12T04:00:19;16.45;;;14.43;;
37141;SDS011;23041;49.816;20.092;2022-09-12T04:02:46;16.17;;;14.45;;
37141;SDS011;23041;49.816;20.092;2022-09-12T04:05:13;15.98;;;14.30;;
37141;SDS011;23041;49.816;20.092;2022-09-12T04:07:39;15.45;;;13.85;;
37141;SDS011;23041;49.816;20.092;2022-09-12T04:10:06;15.75;;;14.20;;
37141;SDS011;23041;49.816;20.092;2022-09-12T04:12:33;17.67;;;15.80;;
37141;SDS011;23041;49.816;20.092;2022-09-12T04:15:00;16.70;;;15.10;;
37141;SDS011;23041;49.816;20.092;2022-09-12T04:17:26;15.03;;;13.40;;
37141;SDS011;23041;49.816;20.092;2022-09-12T04:19:53;16.32;;;14.70;;
37141;SDS011;23041;49.816;20.092;2022-09-12T04:22:19;16.10;;;14.58;;
37141;SDS011;23041;49.816;20.092;2022-09-12T04:24:45;19.98;;;15.55;;
37141;SDS011;23041;49.816;20.092;2022-09-12T04:27:12;17.12;;;15.30;;
37141;SDS011;23041;49.816;20.092;2022-09-12T04:29:38;18.40;;;16.17;;
37141;SDS011;23041;49.816;20.092;2022-09-12T04:32:05;17.17;;;14.50;;
37141;SDS011;23041;49.816;20.092;2022-09-12T04:34:31;16.97;;;15.28;;
37141;SDS011;23041;49.816;20.092;2022-09-12T04:36:59;19.12;;;15.95;;
37141;SDS011;23041;49.816;20.092;2022-09-12T04:39:25;20.40;;;15.83;;
37141;SDS011;23041;49.816;20.092;2022-09-12T04:41:52;18.15;;;15.45;;
37141;SDS011;23041;49.816;20.092;2022-09-12T04:44:18;14.73;;;13.30;;
37141;SDS011;23041;49.816;20.092;2022-09-12T04:46:45;17.73;;;15.20;;
37141;SDS011;23041;49.816;20.092;2022-09-12T04:49:12;17.15;;;15.45;;
37141;SDS011;23041;49.816;20.092;2022-09-12T04:51:42;15.90;;;13.68;;
37141;SDS011;23041;49.816;20.092;2022-09-12T04:54:16;15.95;;;13.85;;
37141;SDS011;23041;49.816;20.092;2022-09-12T04:56:45;14.55;;;12.85;;
37141;SDS011;23041;49.816;20.092;2022-09-12T04:59:14;14.07;;;12.78;;
37141;SDS011;23041;49.816;20.092;2022-09-12T05:01:42;15.28;;;13.68;;
37141;SDS011;23041;49.816;20.092;2022-09-12T05:04:09;15.13;;;13.32;;
37141;SDS011;23041;49.816;20.092;2022-09-12T05:06:37;13.40;;;11.68;;
37141;SDS011;23041;49.816;20.092;2022-09-12T05:09:06;13.65;;;11.33;;
37141;SDS011;23041;49.816;20.092;2022-09-12T05:11:37;13.15;;;11.75;;
37141;SDS011;23041;49.816;20.092;2022-09-12T05:14:05;12.70;;;11.55;;
37141;SDS011;23041;49.816;20.092;2022-09-12T05:16:32;13.25;;;11.55;;
37141;SDS011;23041;49.816;20.092;2022-09-12T05:18:59;16.23;;;11.22;;
37141;SDS011;23041;49.816;20.092;2022-09-12T05:21:25;13.80;;;11.40;;
37141;SDS011;23041;49.816;20.092;2022-09-12T05:23:53;12.07;;;10.40;;
37141;SDS011;23041;49.816;20.092;2022-09-12T05:26:21;14.20;;;12.53;;
37141;SDS011;23041;49.816;20.092;2022-09-12T05:28:51;12.98;;;11.68;;
37141;SDS011;23041;49.816;20.092;2022-09-12T05:31:18;14.18;;;12.70;;
37141;SDS011;23041;49.816;20.092;2022-09-12T05:33:47;15.53;;;12.45;;
37141;SDS011;23041;49.816;20.092;2022-09-12T05:36:16;17.12;;;11.88;;
37141;SDS011;23041;49.816;20.092;2022-09-12T05:38:48;13.05;;;11.68;;
37141;SDS011;23041;49.816;20.092;2022-09-12T05:41:16;14.20;;;12.23;;
37141;SDS011;23041;49.816;20.092;2022-09-12T05:46:17;14.65;;;12.60;;
37141;SDS011;23041;49.816;20.092;2022-09-12T05:48:45;13.48;;;11.80;;
37141;SDS011;23041;49.816;20.092;2022-09-12T05:51:18;13.28;;;11.97;;
37141;SDS011;23041;49.816;20.092;2022-09-12T05:53:47;15.98;;;12.80;;
37141;SDS011;23041;49.816;20.092;2022-09-12T05:56:18;15.23;;;12.55;;
37141;SDS011;23041;49.816;20.092;2022-09-12T05:58:54;12.43;;;11.20;;
37141;SDS011;23041;49.816;20.092;2022-09-12T06:01:25;14.28;;;12.88;;
37141;SDS011;23041;49.816;20.092;2022-09-12T06:03:54;13.55;;;12.13;;
37141;SDS011;23041;49.816;20.092;2022-09-12T06:06:24;13.00;;;11.70;;
37141;SDS011;23041;49.816;20.092;2022-09-12T06:08:54;13.20;;;11.90;;
37141;SDS011;23041;49.816;20.092;2022-09-12T06:11:24;13.43;;;12.18;;
37141;SDS011;23041;49.816;20.092;2022-09-12T06:13:54;13.25;;;11.65;;
37141;SDS011;23041;49.816;20.092;2022-09-12T06:16:23;12.87;;;11.57;;
37141;SDS011;23041;49.816;20.092;2022-09-12T06:18:53;12.43;;;11.30;;
37141;SDS011;23041;49.816;20.092;2022-09-12T06:23:49;12.58;;;11.30;;
37141;SDS011;23041;49.816;20.092;2022-09-12T06:26:16;11.80;;;10.78;;
37141;SDS011;23041;49.816;20.092;2022-09-12T06:28:45;12.85;;;11.55;;
37141;SDS011;23041;49.816;20.092;2022-09-12T06:31:19;10.88;;;9.88;;
37141;SDS011;23041;49.816;20.092;2022-09-12T06:33:50;11.33;;;10.13;;
37141;SDS011;23041;49.816;20.092;2022-09-12T06:36:22;11.15;;;9.93;;
37141;SDS011;23041;49.816;20.092;2022-09-12T06:38:55;10.38;;;9.35;;
37141;SDS011;23041;49.816;20.092;2022-09-12T06:41:29;9.05;;;8.23;;
37141;SDS011;23041;49.816;20.092;2022-09-12T06:43:56;9.40;;;8.43;;
37141;SDS011;23041;49.816;20.092;2022-09-12T06:46:23;10.98;;;9.20;;
37141;SDS011;23041;49.816;20.092;2022-09-12T06:48:50;10.38;;;9.30;;
37141;SDS011;23041;49.816;20.092;2022-09-12T06:51:17;9.13;;;8.23;;
37141;SDS011;23041;49.816;20.092;2022-09-12T06:53:45;9.23;;;8.33;;
37141;SDS011;23041;49.816;20.092;2022-09-12T06:56:16;8.48;;;7.65;;
37141;SDS011;23041;49.816;20.092;2022-09-12T06:58:47;11.63;;;7.28;;
37141;SDS011;23041;49.816;20.092;2022-09-12T07:01:15;11.15;;;6.67;;
37141;SDS011;23041;49.816;20.092;2022-09-12T07:03:49;8.10;;;6.67;;
37141;SDS011;23041;49.816;20.092;2022-09-12T07:06:21;10.00;;;6.10;;
37141;SDS011;23041;49.816;20.092;2022-09-12T07:08:55;6.75;;;6.05;;
37141;SDS011;23041;49.816;20.092;2022-09-12T07:11:27;6.67;;;5.62;;
37141;SDS011;23041;49.816;20.092;2022-09-12T07:14:00;5.35;;;4.95;;
37141;SDS011;23041;49.816;20.092;2022-09-12T07:16:30;6.55;;;5.58;;
37141;SDS011;23041;49.816;20.092;2022-09-12T07:18:58;6.08;;;5.58;;
37141;SDS011;23041;49.816;20.092;2022-09-12T07:21:27;5.85;;;5.37;;
37141;SDS011;23041;49.816;20.092;2022-09-12T07:23:54;5.40;;;4.90;;
37141;SDS011;23041;49.816;20.092;2022-09-12T07:26:25;5.08;;;4.67;;
37141;SDS011;23041;49.816;20.092;2022-09-12T07:28:54;5.42;;;4.92;;
37141;SDS011;23041;49.816;20.092;2022-09-12T07:31:22;5.20;;;4.70;;
37141;SDS011;23041;49.816;20.092;2022-09-12T07:33:50;4.60;;;4.22;;
37141;SDS011;23041;49.816;20.092;2022-09-12T07:36:17;4.17;;;3.75;;
37141;SDS011;23041;49.816;20.092;2022-09-12T07:38:47;3.83;;;3.50;;
37141;SDS011;23041;49.816;20.092;2022-09-12T07:41:16;4.28;;;3.75;;
37141;SDS011;23041;49.816;20.092;2022-09-12T07:43:45;4.42;;;4.03;;
37141;SDS011;23041;49.816;20.092;2022-09-12T07:46:12;3.77;;;3.58;;
37141;SDS011;23041;49.816;20.092;2022-09-12T07:48:39;7.75;;;3.87;;
37141;SDS011;23041;49.816;20.092;2022-09-12T07:51:07;5.20;;;4.17;;
37141;SDS011;23041;49.816;20.092;2022-09-12T07:53:37;4.87;;;4.05;;
37141;SDS011;23041;49.816;20.092;2022-09-12T07:56:06;4.55;;;4.15;;
37141;SDS011;23041;49.816;20.092;2022-09-12T07:58:34;3.92;;;3.62;;
37141;SDS011;23041;49.816;20.092;2022-09-12T08:01:03;4.40;;;4.00;;
37141;SDS011;23041;49.816;20.092;2022-09-12T08:03:35;3.75;;;3.30;;
37141;SDS011;23041;49.816;20.092;2022-09-12T08:06:06;3.17;;;2.98;;
37141;SDS011;23041;49.816;20.092;2022-09-12T08:08:33;5.53;;;3.20;;
37141;SDS011;23041;49.816;20.092;2022-09-12T08:11:01;3.90;;;3.55;;
37141;SDS011;23041;49.816;20.092;2022-09-12T08:13:31;4.37;;;3.10;;
37141;SDS011;23041;49.816;20.092;2022-09-12T08:16:01;3.75;;;3.45;;
37141;SDS011;23041;49.816;20.092;2022-09-12T08:18:30;3.55;;;3.30;;
37141;SDS011;23041;49.816;20.092;2022-09-12T08:20:58;5.33;;;3.12;;
37141;SDS011;23041;49.816;20.092;2022-09-12T08:23:33;3.45;;;3.20;;
37141;SDS011;23041;49.816;20.092;2022-09-12T08:26:00;3.40;;;3.15;;
37141;SDS011;23041;49.816;20.092;2022-09-12T08:28:29;3.95;;;3.65;;
37141;SDS011;23041;49.816;20.092;2022-09-12T08:31:07;3.42;;;3.12;;
37141;SDS011;23041;49.816;20.092;2022-09-12T08:33:33;4.03;;;3.30;;
37141;SDS011;23041;49.816;20.092;2022-09-12T08:36:04;4.20;;;2.72;;
37141;SDS011;23041;49.816;20.092;2022-09-12T08:38:34;4.70;;;3.02;;
37141;SDS011;23041;49.816;20.092;2022-09-12T09:12:17;6.67;;;3.02;;
37141;SDS011;23041;49.816;20.092;2022-09-12T09:17:57;3.87;;;2.80;;
37141;SDS011;23041;49.816;20.092;2022-09-12T09:20:31;4.37;;;2.40;;
37141;SDS011;23041;49.816;20.092;2022-09-12T09:23:14;4.60;;;2.47;;
37141;SDS011;23041;49.816;20.092;2022-09-12T09:28:38;2.90;;;2.55;;
37141;SDS011;23041;49.816;20.092;2022-09-12T09:31:23;2.08;;;1.98;;
37141;SDS011;23041;49.816;20.092;2022-09-12T09:33:53;2.52;;;2.33;;
37141;SDS011;23041;49.816;20.092;2022-09-12T09:41:55;4.65;;;2.60;;
37141;SDS011;23041;49.816;20.092;2022-09-12T09:44:55;2.87;;;2.40;;
37141;SDS011;23041;49.816;20.092;2022-09-12T09:47:24;2.75;;;2.55;;
37141;SDS011;23041;49.816;20.092;2022-09-12T09:49:51;5.30;;;2.52;;
37141;SDS011;23041;49.816;20.092;2022-09-12T09:52:19;2.85;;;2.55;;
37141;SDS011;23041;49.816;20.092;2022-09-12T09:54:58;2.80;;;2.58;;
37141;SDS011;23041;49.816;20.092;2022-09-12T10:00:21;2.90;;;2.30;;
37141;SDS011;23041;49.816;20.092;2022-09-12T10:08:10;4.33;;;2.60;;
37141;SDS011;23041;49.816;20.092;2022-09-12T10:10:58;2.75;;;2.55;;
37141;SDS011;23041;49.816;20.092;2022-09-12T10:13:28;4.40;;;2.12;;
37141;SDS011;23041;49.816;20.092;2022-09-12T10:16:15;4.22;;;2.77;;
37141;SDS011;23041;49.816;20.092;2022-09-12T10:18:56;3.12;;;2.20;;
37141;SDS011;23041;49.816;20.092;2022-09-12T10:21:36;2.40;;;2.25;;
37141;SDS011;23041;49.816;20.092;2022-09-12T10:27:13;2.22;;;2.12;;
37141;SDS011;23041;49.816;20.092;2022-09-12T10:32:20;2.47;;;2.20;;
37141;SDS011;23041;49.816;20.092;2022-09-12T10:35:04;2.63;;;2.43;;
37141;SDS011;23041;49.816;20.092;2022-09-12T10:37:34;3.47;;;2.90;;
37141;SDS011;23041;49.816;20.092;2022-09-12T10:40:05;3.08;;;2.72;;
37141;SDS011;23041;49.816;20.092;2022-09-12T10:42:46;2.60;;;2.40;;
37141;SDS011;23041;49.816;20.092;2022-09-12T10:45:23;2.52;;;2.33;;
37141;SDS011;23041;49.816;20.092;2022-09-12T10:47:54;2.77;;;2.47;;
37141;SDS011;23041;49.816;20.092;2022-09-12T10:50:40;2.50;;;2.40;;
37141;SDS011;23041;49.816;20.092;2022-09-12T10:53:26;2.75;;;2.55;;
37141;SDS011;23041;49.816;20.092;2022-09-12T10:55:52;2.58;;;2.37;;
37141;SDS011;23041;49.816;20.092;2022-09-12T11:07:34;2.50;;;2.40;;
37141;SDS011;23041;49.816;20.092;2022-09-12T11:10:16;2.83;;;2.60;;
37141;SDS011;23041;49.816;20.092;2022-09-12T11:21:51;2.60;;;2.05;;
37141;SDS011;23041;49.816;20.092;2022-09-12T11:24:28;2.20;;;2.10;;
37141;SDS011;23041;49.816;20.092;2022-09-12T11:30:08;3.58;;;2.30;;
37141;SDS011;23041;49.816;20.092;2022-09-12T11:35:34;4.08;;;1.98;;
37141;SDS011;23041;49.816;20.092;2022-09-12T11:41:11;2.20;;;2.00;;
37141;SDS011;23041;49.816;20.092;2022-09-12T11:46:49;2.20;;;1.98;;
37141;SDS011;23041;49.816;20.092;2022-09-12T11:49:18;2.77;;;1.60;;
37141;SDS011;23041;49.816;20.092;2022-09-12T11:52:12;2.00;;;1.90;;
37141;SDS011;23041;49.816;20.092;2022-09-12T11:54:57;1.98;;;1.80;;
37141;SDS011;23041;49.816;20.092;2022-09-12T12:05:33;2.08;;;1.87;;
37141;SDS011;23041;49.816;20.092;2022-09-12T12:08:18;2.02;;;1.92;;
37141;SDS011;23041;49.816;20.092;2022-09-12T12:11:00;2.58;;;2.37;;
37141;SDS011;23041;49.816;20.092;2022-09-12T12:13:54;2.20;;;2.10;;
37141;SDS011;23041;49.816;20.092;2022-09-12T12:16:26;1.92;;;1.82;;
37141;SDS011;23041;49.816;20.092;2022-09-12T12:18:59;2.42;;;2.22;;
37141;SDS011;23041;49.816;20.092;2022-09-12T12:29:35;2.17;;;1.80;;
37141;SDS011;23041;49.816;20.092;2022-09-12T12:34:38;2.25;;;2.15;;
37141;SDS011;23041;49.816;20.092;2022-09-12T12:39:57;2.00;;;1.90;;
37141;SDS011;23041;49.816;20.092;2022-09-12T12:47:55;1.90;;;1.80;;
37141;SDS011;23041;49.816;20.092;2022-09-12T12:50:30;4.03;;;1.90;;
37141;SDS011;23041;49.816;20.092;2022-09-12T12:52:57;2.22;;;2.02;;
37141;SDS011;23041;49.816;20.092;2022-09-12T13:01:10;2.12;;;2.00;;
37141;SDS011;23041;49.816;20.092;2022-09-12T13:03:40;2.57;;;2.17;;
37141;SDS011;23041;49.816;20.092;2022-09-12T13:06:21;1.70;;;1.60;;
37141;SDS011;23041;49.816;20.092;2022-09-12T13:09:03;1.98;;;1.87;;
37141;SDS011;23041;49.816;20.092;2022-09-12T13:11:37;2.42;;;1.98;;
37141;SDS011;23041;49.816;20.092;2022-09-12T13:14:05;2.25;;;2.10;;
37141;SDS011;23041;49.816;20.092;2022-09-12T13:16:53;2.75;;;2.27;;
37141;SDS011;23041;49.816;20.092;2022-09-12T13:19:28;2.20;;;2.10;;
37141;SDS011;23041;49.816;20.092;2022-09-12T13:22:01;2.55;;;1.80;;
37141;SDS011;23041;49.816;20.092;2022-09-12T13:24:30;2.30;;;2.10;;
37141;SDS011;23041;49.816;20.092;2022-09-12T13:26:57;2.40;;;2.20;;
37141;SDS011;23041;49.816;20.092;2022-09-12T13:29:25;2.08;;;1.98;;
37141;SDS011;23041;49.816;20.092;2022-09-12T13:31:53;3.10;;;2.40;;
37141;SDS011;23041;49.816;20.092;2022-09-12T13:34:31;2.15;;;1.98;;
37141;SDS011;23041;49.816;20.092;2022-09-12T13:43:19;2.35;;;2.25;;
37141;SDS011;23041;49.816;20.092;2022-09-12T13:45:42;2.37;;;2.20;;
37141;SDS011;23041;49.816;20.092;2022-09-12T13:48:18;3.98;;;2.72;;
37141;SDS011;23041;49.816;20.092;2022-09-12T13:50:50;3.12;;;2.83;;
37141;SDS011;23041;49.816;20.092;2022-09-12T13:53:22;3.42;;;2.20;;
37141;SDS011;23041;49.816;20.092;2022-09-12T13:55:53;3.67;;;2.27;;
37141;SDS011;23041;49.816;20.092;2022-09-12T13:58:28;2.75;;;2.55;;
37141;SDS011;23041;49.816;20.092;2022-09-12T14:03:40;3.85;;;2.62;;
37141;SDS011;23041;49.816;20.092;2022-09-12T14:06:50;3.75;;;2.17;;
37141;SDS011;23041;49.816;20.092;2022-09-12T14:09:24;2.72;;;2.52;;
37141;SDS011;23041;49.816;20.092;2022-09-12T14:11:57;3.98;;;2.75;;
37141;SDS011;23041;49.816;20.092;2022-09-12T14:14:26;3.77;;;2.52;;
37141;SDS011;23041;49.816;20.092;2022-09-12T14:19:54;2.50;;;2.30;;
37141;SDS011;23041;49.816;20.092;2022-09-12T14:22:24;5.80;;;2.40;;
37141;SDS011;23041;49.816;20.092;2022-09-12T14:24:52;3.05;;;2.20;;
37141;SDS011;23041;49.816;20.092;2022-09-12T14:27:24;2.90;;;2.40;;
37141;SDS011;23041;49.816;20.092;2022-09-12T14:30:19;2.27;;;2.08;;
37141;SDS011;23041;49.816;20.092;2022-09-12T14:40:59;2.90;;;2.00;;
37141;SDS011;23041;49.816;20.092;2022-09-12T14:43:36;2.60;;;2.40;;
37141;SDS011;23041;49.816;20.092;2022-09-12T14:46:15;2.52;;;2.33;;
37141;SDS011;23041;49.816;20.092;2022-09-12T14:48:52;2.50;;;2.30;;
37141;SDS011;23041;49.816;20.092;2022-09-12T14:51:32;3.22;;;2.27;;
37141;SDS011;23041;49.816;20.092;2022-09-12T14:54:21;4.53;;;2.55;;
37141;SDS011;23041;49.816;20.092;2022-09-12T14:59:29;2.45;;;2.25;;
37141;SDS011;23041;49.816;20.092;2022-09-12T15:07:44;2.40;;;2.20;;
37141;SDS011;23041;49.816;20.092;2022-09-12T15:10:35;2.80;;;2.30;;
37141;SDS011;23041;49.816;20.092;2022-09-12T15:15:44;2.60;;;2.40;;
37141;SDS011;23041;49.816;20.092;2022-09-12T15:18:17;2.30;;;2.10;;
37141;SDS011;23041;49.816;20.092;2022-09-12T15:20:45;3.50;;;2.25;;
37141;SDS011;23041;49.816;20.092;2022-09-12T15:23:19;4.80;;;2.17;;
37141;SDS011;23041;49.816;20.092;2022-09-12T15:25:55;2.47;;;2.27;;
37141;SDS011;23041;49.816;20.092;2022-09-12T15:28:22;3.58;;;2.58;;
37141;SDS011;23041;49.816;20.092;2022-09-12T15:30:50;4.60;;;2.30;;
37141;SDS011;23041;49.816;20.092;2022-09-12T15:33:19;4.00;;;2.65;;
37141;SDS011;23041;49.816;20.092;2022-09-12T15:35:48;2.47;;;2.27;;
37141;SDS011;23041;49.816;20.092;2022-09-12T15:38:16;2.72;;;2.40;;
37141;SDS011;23041;49.816;20.092;2022-09-12T15:40:43;3.72;;;2.40;;
37141;SDS011;23041;49.816;20.092;2022-09-12T15:43:11;2.58;;;2.40;;
37141;SDS011;23041;49.816;20.092;2022-09-12T15:45:40;2.67;;;2.47;;
37141;SDS011;23041;49.816;20.092;2022-09-12T15:48:07;2.65;;;2.45;;
37141;SDS011;23041;49.816;20.092;2022-09-12T15:50:33;3.08;;;2.40;;
37141;SDS011;23041;49.816;20.092;2022-09-12T15:53:00;2.42;;;2.22;;
37141;SDS011;23041;49.816;20.092;2022-09-12T15:55:28;3.52;;;2.52;;
37141;SDS011;23041;49.816;20.092;2022-09-12T15:57:59;2.62;;;2.40;;
37141;SDS011;23041;49.816;20.092;2022-09-12T16:00:25;5.62;;;2.85;;
37141;SDS011;23041;49.816;20.092;2022-09-12T16:02:52;2.92;;;2.60;;
37141;SDS011;23041;49.816;20.092;2022-09-12T16:05:24;3.30;;;2.72;;
37141;SDS011;23041;49.816;20.092;2022-09-12T16:07:50;2.80;;;2.60;;
37141;SDS011;23041;49.816;20.092;2022-09-12T16:10:19;2.80;;;2.58;;
37141;SDS011;23041;49.816;20.092;2022-09-12T16:12:49;3.05;;;2.85;;
37141;SDS011;23041;49.816;20.092;2022-09-12T16:15:17;4.28;;;2.65;;
37141;SDS011;23041;49.816;20.092;2022-09-12T16:17:46;3.12;;;2.50;;
37141;SDS011;23041;49.816;20.092;2022-09-12T16:20:13;3.75;;;2.92;;
37141;SDS011;23041;49.816;20.092;2022-09-12T16:22:40;3.10;;;2.83;;
37141;SDS011;23041;49.816;20.092;2022-09-12T16:25:08;3.87;;;2.98;;
37141;SDS011;23041;49.816;20.092;2022-09-12T16:27:34;2.90;;;2.60;;
37141;SDS011;23041;49.816;20.092;2022-09-12T16:30:02;3.62;;;2.83;;
37141;SDS011;23041;49.816;20.092;2022-09-12T16:32:30;4.40;;;2.60;;
37141;SDS011;23041;49.816;20.092;2022-09-12T16:34:57;3.20;;;2.90;;
37141;SDS011;23041;49.816;20.092;2022-09-12T16:37:24;4.22;;;2.65;;
37141;SDS011;23041;49.816;20.092;2022-09-12T16:39:52;4.30;;;2.58;;
37141;SDS011;23041;49.816;20.092;2022-09-12T16:42:18;4.42;;;2.80;;
37141;SDS011;23041;49.816;20.092;2022-09-12T16:44:45;3.70;;;2.62;;
37141;SDS011;23041;49.816;20.092;2022-09-12T16:47:12;5.67;;;2.92;;
37141;SDS011;23041;49.816;20.092;2022-09-12T16:49:39;3.10;;;2.90;;
37141;SDS011;23041;49.816;20.092;2022-09-12T16:52:05;3.22;;;3.00;;
37141;SDS011;23041;49.816;20.092;2022-09-12T16:54:32;3.37;;;3.10;;
37141;SDS011;23041;49.816;20.092;2022-09-12T16:56:58;3.30;;;3.00;;
37141;SDS011;23041;49.816;20.092;2022-09-12T16:59:25;6.95;;;3.72;;
37141;SDS011;23041;49.816;20.092;2022-09-12T17:01:51;4.30;;;3.90;;
37141;SDS011;23041;49.816;20.092;2022-09-12T17:04:18;5.87;;;4.40;;
37141;SDS011;23041;49.816;20.092;2022-09-12T17:06:44;7.35;;;5.03;;
37141;SDS011;23041;49.816;20.092;2022-09-12T17:09:10;4.67;;;4.10;;
37141;SDS011;23041;49.816;20.092;2022-09-12T17:11:38;6.40;;;5.03;;
37141;SDS011;23041;49.816;20.092;2022-09-12T17:14:05;9.03;;;4.60;;
37141;SDS011;23041;49.816;20.092;2022-09-12T17:16:36;5.90;;;5.28;;
37141;SDS011;23041;49.816;20.092;2022-09-12T17:19:11;6.12;;;4.80;;
37141;SDS011;23041;49.816;20.092;2022-09-12T17:21:45;6.70;;;5.45;;
37141;SDS011;23041;49.816;20.092;2022-09-12T17:24:15;6.25;;;5.65;;
37141;SDS011;23041;49.816;20.092;2022-09-12T17:26:42;5.87;;;5.28;;
37141;SDS011;23041;49.816;20.092;2022-09-12T17:29:12;10.23;;;6.40;;
37141;SDS011;23041;49.816;20.092;2022-09-12T17:31:40;9.35;;;5.92;;
37141;SDS011;23041;49.816;20.092;2022-09-12T17:34:07;10.95;;;6.22;;
37141;SDS011;23041;49.816;20.092;2022-09-12T17:36:36;8.35;;;5.97;;
37141;SDS011;23041;49.816;20.092;2022-09-12T17:39:04;6.75;;;4.70;;
37141;SDS011;23041;49.816;20.092;2022-09-12T17:41:30;6.37;;;4.75;;
37141;SDS011;23041;49.816;20.092;2022-09-12T17:43:58;6.95;;;5.12;;
37141;SDS011;23041;49.816;20.092;2022-09-12T17:46:31;5.97;;;4.60;;
37141;SDS011;23041;49.816;20.092;2022-09-12T17:49:00;4.92;;;4.53;;
37141;SDS011;23041;49.816;20.092;2022-09-12T17:51:30;9.30;;;5.55;;
37141;SDS011;23041;49.816;20.092;2022-09-12T17:53:57;5.40;;;4.90;;
37141;SDS011;23041;49.816;20.092;2022-09-12T17:58:55;4.40;;;4.00;;
37141;SDS011;23041;49.816;20.092;2022-09-12T18:01:22;5.75;;;3.72;;
37141;SDS011;23041;49.816;20.092;2022-09-12T18:04:08;5.37;;;4.22;;
37141;SDS011;23041;49.816;20.092;2022-09-12T18:06:35;5.33;;;4.20;;
37141;SDS011;23041;49.816;20.092;2022-09-12T18:09:03;6.35;;;4.20;;
37141;SDS011;23041;49.816;20.092;2022-09-12T18:11:32;4.70;;;4.10;;
37141;SDS011;23041;49.816;20.092;2022-09-12T18:13:59;5.35;;;4.25;;